Time;durP1;ratioP1;P1;durP2;ratioP2;P2;SDS_P1;SDS_P2;PMS_P1;PMS_P2;Temp;Humidity;BMP_temperature;BMP_pressure;BME280_temperature;BME280_humidity;BME280_pressure;Samples;Min_cycle;Max_cycle;Signal;HPM_P1;HPM_P2
2022/06/29 00:00:03;;;;;;;;;;;;;;;25.28;62.76;101273.69;5033147;28;20021;-83
2022/06/29 00:02:29;;;;;;;7.25;6.15;;;;;;;25.21;62.66;101253.16;5031541;28;20605;-82
2022/06/29 00:04:55;;;;;;;;;;;;;;;25.43;62.37;101278.16;5049075;28;20113;-84
2022/06/29 00:07:20;;;;;;;8.05;5.80;;;;;;;25.23;63.25;101257.66;5031837;28;19912;-83
2022/06/29 00:09:47;;;;;;;;;;;;;;;25.37;62.63;101271.91;5050375;28;20415;-83
2022/06/29 00:12:12;;;;;;;6.85;5.63;;;;;;;25.32;62.66;101275.47;5052283;28;19913;-82
2022/06/29 00:14:43;;;;;;;;;;;;;;;25.29;63.09;101267.44;5053187;28;20017;-82
2022/06/29 00:17:10;;;;;;;7.00;5.10;;;;;;;25.31;62.42;101271.88;5050750;28;19944;-82
2022/06/29 00:19:36;;;;;;;8.00;5.85;;;;;;;25.31;62.80;101276.34;5036074;28;20052;-81
2022/06/29 00:22:01;;;;;;;;;;;;;;;25.31;62.44;101266.53;5053414;28;20063;-82
2022/06/29 00:24:27;;;;;;;8.15;5.38;;;;;;;25.30;61.82;101271.91;5051868;28;19913;-82
2022/06/29 00:26:52;;;;;;;;;;;;;;;25.42;62.86;101271.94;5052101;28;20029;-81
2022/06/29 00:29:18;;;;;;;6.75;5.05;;;;;;;25.37;62.45;101261.19;5052185;28;19912;-81
2022/06/29 00:31:43;;;;;;;;;;;;;;;25.34;62.22;101258.53;5047165;28;20047;-81
2022/06/29 00:34:09;;;;;;;6.15;4.70;;;;;;;25.33;62.28;101262.09;5052224;28;19930;-81
2022/06/29 00:36:34;;;;;;;;;;;;;;;25.24;62.46;101259.41;5052273;28;20057;-82
2022/06/29 00:39:00;;;;;;;7.57;5.28;;;;;;;25.13;62.53;101229.97;5033765;28;19912;-82
2022/06/29 00:41:25;;;;;;;;;;;;;;;25.26;62.41;101256.75;5052463;28;20511;-82
2022/06/29 00:43:51;;;;;;;7.90;5.07;;;;;;;25.26;62.53;101254.09;5052016;28;19913;-82
2022/06/29 00:46:16;;;;;;;;;;;;;;;25.24;62.45;101248.72;5045105;28;20492;-82
2022/06/29 00:48:44;;;;;;;6.57;5.45;;;;;;;25.28;62.23;101260.31;5036122;28;19920;-82
2022/06/29 00:51:11;;;;;;;6.40;5.15;;;;;;;25.24;62.33;101248.72;5053428;28;20028;-82
2022/06/29 00:53:41;;;;;;;7.50;5.15;;;;;;;25.28;62.25;101260.31;5048680;28;20026;-82
2022/06/29 00:56:11;;;;;;;7.50;5.40;;;;;;;25.24;62.38;101256.75;5071894;28;20063;-81
2022/06/29 00:58:37;;;;;;;7.43;5.03;;;;;;;25.11;62.28;101236.22;5052681;28;20021;-82
2022/06/29 01:01:04;;;;;;;7.47;5.22;;;;;;;25.23;62.18;101259.41;5033801;28;20118;-82
2022/06/29 01:03:32;;;;;;;8.85;4.88;;;;;;;25.11;62.28;101242.44;5053094;28;20053;-83
2022/06/29 01:05:58;;;;;;;7.78;5.20;;;;;;;25.12;62.44;101246.00;5050835;28;20025;-82
2022/06/29 01:08:24;;;;;;;7.90;4.93;;;;;;;25.14;62.07;101250.44;5034157;28;20029;-82
2022/06/29 01:10:49;;;;;;;;;;;;;;;25.20;62.04;101262.97;5050484;28;20108;-81
2022/06/29 01:13:15;;;;;;;8.05;5.32;;;;;;;25.25;62.52;101263.88;5051182;28;19920;-82
2022/06/29 01:15:40;;;;;;;;;;;;;;;25.35;62.23;101268.31;5033160;28;20131;-83
2022/06/29 01:18:07;;;;;;;9.40;5.07;;;;;;;25.31;62.14;101261.19;5049641;28;19913;-82
2022/06/29 01:20:32;;;;;;;7.28;5.45;;;;;;;25.33;62.81;101266.56;5049853;28;20494;-82
2022/06/29 01:22:58;;;;;;;;;;;;;;;25.39;62.18;101274.59;5016938;28;20075;-82
2022/06/29 01:25:23;;;;;;;7.47;5.57;;;;;;;25.34;62.13;101260.34;5048206;28;19920;-82
2022/06/29 01:27:49;;;;;;;;;;;;;;;25.29;62.16;101259.41;5050979;28;20515;-82
2022/06/29 01:30:15;;;;;;;7.65;5.22;;;;;;;25.13;62.31;101234.44;5050708;28;20323;-82
2022/06/29 01:32:40;;;;;;;;;;;;;;;25.28;62.38;101266.56;5052679;28;20468;-82
2022/06/29 01:35:10;;;;;;;6.47;5.47;;;;;;;25.13;61.97;101237.97;5051259;28;19917;-82
2022/06/29 01:37:40;;;;;;;6.63;5.35;;;;;;;25.15;61.95;101254.91;5050863;28;20036;-83
2022/06/29 01:40:07;;;;;;;7.43;5.35;;;;;;;25.21;62.09;101253.16;5037276;28;20105;-82
2022/06/29 01:42:33;;;;;;;6.90;5.47;;;;;;;25.21;62.66;101259.44;5024510;28;20030;-82
2022/06/29 01:44:58;;;;;;;;;;;;;;;25.24;62.38;101259.41;5049873;28;20028;-82
2022/06/29 01:47:24;;;;;;;7.45;5.25;;;;;;;25.19;62.75;101262.06;5041322;28;20567;-82
2022/06/29 01:49:49;;;;;;;;;;;;;;;25.29;62.50;101262.09;5050897;28;20017;-82
2022/06/29 01:52:15;;;;;;;8.35;5.57;;;;;;;25.10;62.59;101240.63;5042855;28;20014;-82
2022/06/29 01:54:40;;;;;;;;;;;;;;;25.33;62.50;101277.25;5051474;28;20154;-82
2022/06/29 01:57:06;;;;;;;6.88;5.40;;;;;;;25.25;62.47;101269.25;5049916;28;20406;-82
2022/06/29 01:59:31;;;;;;;;;;;;;;;25.28;62.86;101271.00;5050981;28;20488;-82
2022/06/29 02:01:57;;;;;;;6.32;5.07;;;;;;;25.18;62.56;101256.69;5050734;28;20440;-82
2022/06/29 02:04:22;;;;;;;;;;;;;;;25.24;62.92;101267.44;5033720;28;20562;-82
2022/06/29 02:06:48;;;;;;;7.40;5.38;;;;;;;25.22;62.92;101273.69;5029825;28;19920;-82
2022/06/29 02:09:13;;;;;;;;;;;;;;;25.28;62.81;101274.56;5029826;28;20131;-82
2022/06/29 02:11:39;;;;;;;7.80;5.35;;;;;;;25.12;62.59;101268.25;5050642;28;20319;-82
2022/06/29 02:14:05;;;;;;;;;;;;;;;25.30;62.46;101274.59;5050942;28;20440;-82
2022/06/29 02:16:30;;;;;;;8.80;5.68;;;;;;;25.18;62.70;101283.44;5047228;28;19913;-82
2022/06/29 02:18:56;;;;;;;;;;;;;;;25.24;62.83;101295.97;5050961;28;20036;-83
2022/06/29 02:21:22;;;;;;;8.20;5.35;;;;;;;25.19;63.01;101298.59;5032581;28;19920;-82
2022/06/29 02:23:49;;;;;;;7.53;5.75;;;;;;;25.19;62.67;101286.13;5050749;28;20021;-82
2022/06/29 02:26:14;;;;;;;6.50;5.20;;;;;;;25.19;62.90;101283.44;5050608;28;20408;-82
2022/06/29 02:28:40;;;;;;;;;;;;;;;25.27;62.80;101294.16;5031735;28;20025;-82
2022/06/29 02:36:34;;;;;;;8.00;6.15;;;;;;;25.18;62.96;101275.41;5046124;28;20040;-82
2022/06/29 02:39:00;;;;;;;;;;;;;;;25.23;62.89;101295.06;5032765;28;20025;-82
2022/06/29 02:41:26;;;;;;;7.90;5.60;;;;;;;25.17;63.07;101287.88;5031598;28;19913;-82
2022/06/29 02:43:51;;;;;;;;;;;;;;;25.20;63.30;101287.03;5031880;28;20036;-82
2022/06/29 02:46:17;;;;;;;9.88;5.53;;;;;;;25.11;63.21;101274.50;5049432;28;19913;-82
2022/06/29 02:48:42;;;;;;;;;;;;;;;25.20;62.99;101284.34;5028445;28;20028;-82
2022/06/29 02:51:08;;;;;;;6.70;5.68;;;;;;;25.13;63.28;101278.06;5046961;28;20256;-82
2022/06/29 02:53:34;;;;;;;;;;;;;;;25.17;63.33;101287.00;5050488;28;20430;-83
2022/06/29 02:55:59;;;;;;;6.90;5.45;;;;;;;25.16;62.96;101290.56;5049490;28;19917;-81
2022/06/29 02:58:25;;;;;;;;;;;;;;;25.19;63.19;101290.56;5051630;28;20056;-81
2022/06/29 03:00:50;;;;;;;8.52;5.70;;;;;;;25.14;63.35;101292.31;5046763;28;19912;-81
2022/06/29 03:03:15;;;;;;;;;;;;;;;25.16;63.15;101299.44;5050029;28;20385;-82
2022/06/29 03:05:41;;;;;;;6.75;5.43;;;;;;;25.10;63.32;101294.09;5050168;28;19909;-81
2022/06/29 03:08:07;;;;;;;;;;;;;;;25.17;62.98;101281.66;5031004;28;20504;-82
2022/06/29 03:10:32;;;;;;;8.90;5.53;;;;;;;25.13;63.19;101287.88;5032852;28;19991;-82
2022/06/29 03:12:58;;;;;;;;;;;;;;;25.20;63.21;101289.69;5047716;28;20039;-81
2022/06/29 03:15:25;;;;;;;7.05;5.60;;;;;;;25.11;63.13;101277.19;5032055;28;19916;-81
2022/06/29 03:17:52;;;;;;;6.55;5.80;;;;;;;25.07;63.13;101287.88;5043722;28;20507;-81
2022/06/29 03:20:18;;;;;;;8.30;5.40;;;;;;;25.06;63.33;101281.63;5049355;28;20025;-82
2022/06/29 03:22:46;;;;;;;;;;;;;;;25.11;63.10;101295.00;5051088;28;20036;-82
2022/06/29 03:25:12;;;;;;;5.57;5.03;;;;;;;24.84;63.61;101258.41;5033165;28;19909;-81
2022/06/29 03:27:38;;;;;;;8.15;5.55;;;;;;;25.01;63.04;101287.84;5048315;28;20388;-81
2022/06/29 03:30:04;;;;;;;;;;;;;;;25.06;63.28;101297.69;5031058;28;20031;-82
2022/06/29 03:32:30;;;;;;;8.35;5.57;;;;;;;24.90;63.27;101275.34;5026803;28;19920;-81
2022/06/29 03:34:55;;;;;;;;;;;;;;;25.08;63.16;101290.56;5049893;28;20049;-82
2022/06/29 03:37:21;;;;;;;10.30;5.60;;;;;;;24.98;63.42;101272.69;5040102;28;19939;-82
2022/06/29 03:39:46;;;;;;;;;;;;;;;25.05;63.17;101287.84;5043332;28;20550;-82
2022/06/29 03:42:12;;;;;;;6.50;5.60;;;;;;;24.98;63.28;101283.41;5048563;28;19913;-82
2022/06/29 03:44:38;;;;;;;;;;;;;;;25.02;63.13;101289.63;5032525;28;20438;-81
2022/06/29 03:47:03;;;;;;;6.90;5.18;;;;;;;24.92;63.57;101276.25;5051793;28;19925;-83
2022/06/29 03:49:29;;;;;;;;;;;;;;;24.99;63.27;101277.16;5045885;28;20075;-84
2022/06/29 03:51:54;;;;;;;6.43;4.95;;;;;;;24.93;63.07;101272.69;5052081;28;19939;-81
2022/06/29 03:54:20;;;;;;;;;;;;;;;25.02;63.07;101278.94;5023237;28;20520;-82
2022/06/29 03:56:45;;;;;;;8.07;5.38;;;;;;;24.98;63.06;101270.91;5054177;28;19919;-82
2022/06/29 03:59:11;;;;;;;;;;;;;;;25.02;62.92;101277.16;5052397;28;20428;-82
2022/06/29 04:01:36;;;;;;;5.82;4.82;;;;;;;24.97;62.75;101274.47;5052121;28;19913;-82
2022/06/29 04:04:02;;;;;;;;;;;;;;;25.02;62.72;101278.94;5053481;28;20496;-83
2022/06/29 04:06:27;;;;;;;6.75;5.25;;;;;;;24.72;63.36;101252.16;5049947;28;19924;-82
2022/06/29 04:08:53;;;;;;;;;;;;;;;24.98;63.02;101292.28;5053294;28;20103;-82
2022/06/29 04:14:02;;;;;;;7.68;5.40;;;;;;;24.94;62.98;101301.19;5051777;28;20040;-82
2022/06/29 04:16:28;;;;;;;;;;;;;;;25.04;62.86;101301.19;5053117;28;20029;-82
2022/06/29 04:18:53;;;;;;;6.50;5.10;;;;;;;24.95;63.01;101288.72;5052867;28;19919;-83
2022/06/29 04:21:19;;;;;;;;;;;;;;;25.07;62.63;101309.25;5052792;28;20029;-83
2022/06/29 04:23:44;;;;;;;6.95;5.38;;;;;;;24.99;62.38;101302.06;5053296;28;20383;-83
2022/06/29 04:26:10;;;;;;;;;;;;;;;24.99;62.63;101311.88;5053225;28;20032;-82
2022/06/29 04:28:36;;;;;;;7.60;5.07;;;;;;;24.92;63.09;101302.06;5051959;28;19917;-83
2022/06/29 04:31:02;;;;;;;;;;;;;;;25.05;62.36;101314.56;5041512;28;20029;-82
2022/06/29 04:33:28;;;;;;;7.43;5.28;;;;;;;25.04;62.41;101307.47;5048916;28;19955;-82
2022/06/29 04:35:53;;;;;;;;;;;;;;;25.01;62.68;101312.78;5035469;28;20126;-81
2022/06/29 04:38:19;;;;;;;6.95;5.60;;;;;;;24.98;62.55;101305.66;5051625;28;19920;-83
2022/06/29 04:40:44;;;;;;;;;;;;;;;25.05;62.67;101319.91;5041433;28;20033;-81
2022/06/29 04:43:10;;;;;;;6.18;4.90;;;;;;;24.85;62.91;101287.81;5048389;28;19916;-81
2022/06/29 04:48:19;;;;;;;7.15;5.28;;;;;;;24.94;62.77;101301.19;5049256;28;20319;-83
2022/06/29 04:50:45;;;;;;;;;;;;;;;25.04;62.83;101323.50;5050669;28;20029;-81
2022/06/29 04:53:10;;;;;;;8.05;5.38;;;;;;;24.98;63.02;101308.31;5051416;28;19962;-82
2022/06/29 04:55:36;;;;;;;;;;;;;;;25.05;63.19;101319.91;5044588;28;20396;-80
2022/06/29 04:58:01;;;;;;;5.78;5.22;;;;;;;25.05;62.35;101309.22;5051954;28;19913;-81
2022/06/29 05:00:27;;;;;;;;;;;;;;;25.02;63.39;101314.59;5052485;28;20025;-80
2022/06/29 05:02:53;;;;;;;5.43;4.93;;;;;;;24.87;62.68;101285.13;5051700;28;19916;-81
2022/06/29 05:05:18;;;;;;;;;;;;;;;25.04;62.85;101312.81;5050561;28;20135;-80
2022/06/29 05:07:44;;;;;;;7.45;4.93;;;;;;;24.93;62.92;101304.75;5049908;28;19919;-80
2022/06/29 05:10:09;;;;;;;;;;;;;;;25.07;63.28;101327.94;5051229;28;20029;-81
2022/06/29 05:12:38;;;;;;;5.75;5.15;;;;;;;25.09;62.83;101321.72;5050155;28;20399;-81
2022/06/29 05:15:07;;;;;;;6.95;5.25;;;;;;;25.10;62.86;101330.63;5051730;28;20527;-81
2022/06/29 05:17:36;;;;;;;5.60;4.95;;;;;;;25.13;62.65;101323.50;5033883;28;20024;-82
2022/06/29 05:20:09;;;;;;;7.65;5.28;;;;;;;25.12;63.02;101326.16;5034522;28;20045;-81
2022/06/29 05:22:35;;;;;;;6.65;4.90;;;;;;;25.14;62.16;101332.41;5049332;28;20524;-81
2022/06/29 05:25:01;;;;;;;5.68;5.00;;;;;;;25.11;62.48;101337.75;5052652;28;20487;-80
2022/06/29 05:27:27;;;;;;;5.28;4.65;;;;;;;25.14;62.25;101340.44;5049687;28;20021;-79
2022/06/29 05:29:52;;;;;;;;;;;;;;;25.18;62.22;101334.22;5044127;28;20488;-82
2022/06/29 05:32:18;;;;;;;6.47;4.75;;;;;;;25.19;62.23;101333.34;5039741;28;19913;-81
2022/06/29 05:34:43;;;;;;;;;;;;;;;25.22;62.55;101329.81;5049209;28;20033;-80
2022/06/29 05:37:09;;;;;;;6.18;4.90;;;;;;;25.05;62.38;101309.22;5050207;28;20319;-80
2022/06/29 05:39:34;;;;;;;;;;;;;;;25.19;62.12;101333.34;5029874;28;20026;-81
2022/06/29 05:42:00;;;;;;;7.28;4.65;;;;;;;24.88;62.52;101286.91;5035897;28;20003;-82
2022/06/29 05:44:25;;;;;;;;;;;;;;;25.09;62.04;101332.41;5038144;28;20033;-81
2022/06/29 05:47:14;;;;;;;6.10;4.80;;;;;;;25.14;62.29;101333.31;5043480;28;19913;-82
2022/06/29 05:49:39;;;;;;;5.03;4.40;;;;;;;25.09;62.32;101308.34;5043547;28;20017;-81
2022/06/29 05:52:05;;;;;;;;;;;;;;;25.18;62.08;101331.53;5027378;28;20027;-81
2022/06/29 05:54:31;;;;;;;5.78;4.82;;;;;;;25.04;62.18;101295.84;5030401;28;20007;-81
2022/06/29 05:56:56;;;;;;;;;;;;;;;25.25;62.19;101321.78;5020454;28;20030;-81
2022/06/29 05:59:22;;;;;;;5.20;4.70;;;;;;;25.15;61.96;101312.84;5033348;28;19987;-81
2022/06/29 06:04:31;;;;;;;7.60;5.03;;;;;;;25.01;62.35;101294.06;5045764;28;19974;-80
2022/06/29 06:06:57;;;;;;;;;;;;;;;25.28;62.04;101333.38;5051468;28;20108;-81
2022/06/29 06:09:26;;;;;;;5.13;4.63;;;;;;;25.21;62.26;101325.34;5034024;28;19966;-81
2022/06/29 06:11:54;;;;;;;5.55;4.97;;;;;;;25.15;62.34;101321.75;5031266;28;20017;-82
2022/06/29 06:14:19;;;;;;;5.13;4.63;;;;;;;25.27;62.32;101336.06;5045189;28;20040;-81
2022/06/29 06:16:45;;;;;;;;;;;;;;;25.21;62.38;101341.38;5054879;28;20499;-81
2022/06/29 06:19:13;;;;;;;5.18;4.57;;;;;;;25.17;62.61;101333.31;5038733;28;20264;-82
2022/06/29 06:21:39;;;;;;;5.30;4.80;;;;;;;25.15;62.95;101342.25;5051348;28;20059;-81
2022/06/29 06:24:04;;;;;;;;;;;;;;;25.31;62.29;101345.88;5050837;28;20050;-81
2022/06/29 06:26:31;;;;;;;6.25;4.72;;;;;;;25.10;62.76;101315.47;5032536;28;19913;-81
2022/06/29 06:28:57;;;;;;;9.93;5.07;;;;;;;25.24;62.27;101336.94;5033337;28;20044;-80
2022/06/29 06:31:26;;;;;;;6.47;4.85;;;;;;;25.26;62.81;101326.25;5036173;28;20025;-80
2022/06/29 06:33:53;;;;;;;5.93;4.70;;;;;;;25.16;62.33;101317.28;5049664;28;20078;-80
2022/06/29 06:36:18;;;;;;;6.07;4.60;;;;;;;25.31;62.52;101336.06;5035588;28;20100;-80
2022/06/29 06:38:44;;;;;;;;;;;;;;;25.37;62.49;101345.88;5050486;28;20029;-80
2022/06/29 06:41:21;;;;;;;5.68;4.50;;;;;;;25.36;62.21;101347.66;5051044;28;19944;-81
2022/06/29 06:43:51;;;;;;;5.78;4.65;;;;;;;25.24;62.98;101320.00;5050907;28;20027;-82
2022/06/29 06:46:17;;;;;;;4.90;4.40;;;;;;;25.34;63.03;101340.53;5051353;28;20500;-81
2022/06/29 06:48:43;;;;;;;6.65;4.53;;;;;;;25.34;62.91;101337.88;5028937;28;20447;-81
2022/06/29 06:51:10;;;;;;;;;;;;;;;25.41;62.60;101336.09;5020027;28;20507;-82
2022/06/29 06:53:35;;;;;;;5.25;4.75;;;;;;;25.37;62.44;101338.75;5053573;28;19913;-80
2022/06/29 06:56:01;;;;;;;;;;;;;;;25.42;62.26;101340.53;5047696;28;20507;-80
2022/06/29 06:58:26;;;;;;;8.10;4.78;;;;;;;25.37;62.26;101338.75;5045840;28;20441;-81
2022/06/29 07:00:52;;;;;;;;;;;;;;;25.41;62.14;101336.09;5051044;28;20025;-79
2022/06/29 07:03:17;;;;;;;6.15;4.55;;;;;;;25.39;62.50;101344.09;5048857;28;19908;-79
2022/06/29 07:05:43;;;;;;;5.45;4.60;;;;;;;25.39;62.80;101346.78;5031461;28;20104;-81
2022/06/29 07:08:08;;;;;;;;;;;;;;;25.41;62.33;101355.69;5051157;28;20025;-81
2022/06/29 07:10:34;;;;;;;5.13;4.63;;;;;;;25.38;62.75;101350.34;5031415;28;19962;-81
2022/06/29 07:13:00;;;;;;;;;;;;;;;25.41;62.35;101349.47;5033591;28;20017;-81
2022/06/29 07:15:25;;;;;;;5.25;4.20;;;;;;;25.33;61.94;101353.00;5032612;28;19913;-81
2022/06/29 07:17:50;;;;;;;;;;;;;;;25.35;62.43;101350.31;5051403;28;20025;-81
2022/06/29 07:20:16;;;;;;;4.95;4.20;;;;;;;25.29;62.69;101340.50;5048772;28;19913;-81
2022/06/29 07:22:42;;;;;;;;;;;;;;;25.42;62.03;101356.56;5054016;28;20505;-81
2022/06/29 07:25:07;;;;;;;5.78;4.30;;;;;;;25.34;62.71;101346.78;5054802;28;19915;-81
2022/06/29 07:27:33;;;;;;;7.78;4.53;;;;;;;25.39;62.22;101352.13;5036958;28;20028;-80
2022/06/29 07:29:58;;;;;;;;;;;;;;;25.42;62.28;101365.53;5051192;28;20018;-79
2022/06/29 07:32:25;;;;;;;4.80;4.30;;;;;;;25.39;62.76;101355.69;5044791;28;19908;-81
2022/06/29 07:34:50;;;;;;;5.93;4.53;;;;;;;25.38;62.50;101361.94;5037059;28;20894;-79
2022/06/29 07:37:16;;;;;;;;;;;;;;;25.46;61.76;101366.41;5037405;28;20021;-80
2022/06/29 07:39:41;;;;;;;4.95;4.45;;;;;;;25.34;62.70;101360.13;5054319;28;19909;-81
2022/06/29 07:42:07;;;;;;;;;;;;;;;25.45;62.00;101372.66;5041358;28;20029;-81
2022/06/29 07:44:32;;;;;;;7.30;4.55;;;;;;;25.27;62.90;101349.41;5054689;28;19948;-82
2022/06/29 07:46:58;;;;;;;;;;;;;;;25.43;62.67;101375.31;5055008;28;20021;-82
2022/06/29 07:49:25;;;;;;;5.00;3.90;;;;;;;25.39;63.00;101382.41;5054651;28;20494;-82
2022/06/29 07:51:53;;;;;;;5.05;4.10;;;;;;;25.31;63.05;101367.25;5045750;28;20444;-82
2022/06/29 07:54:19;;;;;;;6.72;4.07;;;;;;;25.38;63.28;101385.13;5035386;28;20102;-81
2022/06/29 07:56:45;;;;;;;;;;;;;;;25.39;62.93;101378.88;5054209;28;20488;-82
2022/06/29 07:59:11;;;;;;;6.00;4.10;;;;;;;25.26;62.91;101358.34;5054175;28;19909;-82
2022/06/29 08:01:38;;;;;;;5.10;3.83;;;;;;;25.35;63.17;101374.38;5056047;28;20033;-82
2022/06/29 08:04:03;;;;;;;5.15;4.15;;;;;;;25.37;62.92;101380.63;5045304;28;20082;-82
2022/06/29 08:06:38;;;;;;;;;;;;;;;25.40;62.63;101380.66;5054636;28;20458;-84
2022/06/29 08:09:05;;;;;;;5.30;4.00;;;;;;;25.35;62.93;101371.72;5019037;28;19920;-81
2022/06/29 08:11:33;;;;;;;4.47;4.07;;;;;;;25.42;63.02;101377.97;5034137;28;20021;-83
2022/06/29 08:14:00;;;;;;;4.82;4.07;;;;;;;25.43;63.02;101375.31;5052031;28;20032;-82
2022/06/29 08:16:26;;;;;;;4.78;4.18;;;;;;;25.41;62.78;101362.84;5044349;28;20105;-81
2022/06/29 08:18:51;;;;;;;;;;;;;;;25.48;62.62;101370.84;5042781;28;20576;-81
2022/06/29 08:21:17;;;;;;;5.53;3.92;;;;;;;25.44;63.17;101366.38;5034048;28;19913;-82
2022/06/29 08:23:42;;;;;;;;;;;;;;;25.45;63.33;101372.66;5052911;28;20492;-83
2022/06/29 08:26:08;;;;;;;4.35;3.95;;;;;;;25.32;63.23;101350.34;5055528;28;19912;-81
2022/06/29 08:28:33;;;;;;;;;;;;;;;25.49;63.15;101378.00;5053207;28;20025;-81
2022/06/29 08:30:59;;;;;;;5.72;4.22;;;;;;;25.44;63.36;101362.81;5047230;28;19913;-83
2022/06/29 08:33:25;;;;;;;;;;;;;;;25.46;63.16;101375.31;5049900;28;20493;-83
2022/06/29 08:35:50;;;;;;;6.22;4.28;;;;;;;25.42;63.69;101362.84;5043816;28;19917;-82
2022/06/29 08:38:17;;;;;;;4.22;3.83;;;;;;;25.39;63.30;101361.03;5053501;28;20098;-81
2022/06/29 08:40:47;;;;;;;5.90;4.28;;;;;;;25.45;63.26;101373.53;5053657;28;20032;-82
2022/06/29 08:43:17;;;;;;;5.82;4.28;;;;;;;25.44;63.49;101376.19;5053847;28;20029;-82
2022/06/29 08:45:47;;;;;;;4.28;3.88;;;;;;;25.43;63.68;101369.97;5053482;28;20469;-81
2022/06/29 08:48:14;;;;;;;4.57;4.18;;;;;;;25.46;63.33;101366.41;5052751;28;20075;-81
2022/06/29 08:50:41;;;;;;;5.05;4.47;;;;;;;25.43;63.52;101361.06;5018357;28;20017;-81
2022/06/29 08:53:07;;;;;;;6.57;4.15;;;;;;;25.43;63.35;101353.91;5034242;28;20120;-82
2022/06/29 08:55:38;;;;;;;5.25;4.50;;;;;;;25.48;63.40;101349.47;5015373;28;20488;-82
2022/06/29 08:58:06;;;;;;;6.75;4.00;;;;;;;25.47;63.22;101349.47;5052284;28;20021;-82
2022/06/29 09:00:36;;;;;;;5.40;4.47;;;;;;;25.41;63.26;101339.66;5044923;28;20024;-82
2022/06/29 09:03:03;;;;;;;4.53;4.13;;;;;;;25.45;63.34;101357.50;5052220;28;20082;-82
2022/06/29 09:05:29;;;;;;;5.68;3.88;;;;;;;25.28;63.03;101312.00;5052198;28;20025;-82
2022/06/29 09:07:54;;;;;;;;;;;;;;;25.53;63.02;101357.50;5052838;28;20032;-81
2022/06/29 09:10:21;;;;;;;6.60;4.40;;;;;;;25.52;63.17;101363.75;5034616;28;20372;-82
2022/06/29 09:12:52;;;;;;;6.32;4.38;;;;;;;25.50;63.57;101360.16;5044310;28;20105;-83
2022/06/29 09:15:39;;;;;;;4.93;4.28;;;;;;;25.53;63.13;101345.03;5052493;28;20060;-82
2022/06/29 09:18:25;;;;;;;;;;;;;;;25.55;62.88;101347.72;5034823;28;20020;-81
2022/06/29 09:20:55;;;;;;;4.90;4.28;;;;;;;25.49;63.35;101340.56;5052331;28;19924;-81
2022/06/29 09:23:21;;;;;;;5.82;4.10;;;;;;;25.50;63.06;101328.97;5034380;28;20029;-82
2022/06/29 09:25:47;;;;;;;6.32;4.50;;;;;;;25.52;63.09;101334.31;5052380;28;20024;-82
2022/06/29 09:28:19;;;;;;;;;;;;;;;25.57;62.93;101333.44;5052513;28;20029;-82
2022/06/29 09:30:46;;;;;;;7.57;4.38;;;;;;;25.55;63.18;101334.34;5024263;28;19999;-83
2022/06/29 09:33:12;;;;;;;7.47;4.35;;;;;;;25.53;63.12;101333.44;5048765;28;20047;-83
2022/06/29 09:35:38;;;;;;;;;;;;;;;25.59;62.75;101331.66;5034802;28;20536;-83
2022/06/29 09:38:24;;;;;;;6.78;4.32;;;;;;;25.57;63.27;101332.56;5034301;28;19909;-82
2022/06/29 09:41:07;;;;;;;8.93;4.35;;;;;;;25.59;63.05;101331.66;5051976;28;20028;-83
2022/06/29 09:43:55;;;;;;;5.90;4.13;;;;;;;25.62;63.36;101330.78;5051381;28;20021;-83
2022/06/29 09:46:22;;;;;;;5.63;4.32;;;;;;;25.61;63.01;101337.00;5051554;28;20044;-82
2022/06/29 09:48:48;;;;;;;5.70;4.28;;;;;;;25.58;63.01;101326.31;5051996;28;20071;-82
2022/06/29 09:51:32;;;;;;;;;;;;;;;25.65;63.04;101330.75;5029805;28;20503;-82
2022/06/29 09:54:10;;;;;;;4.75;4.25;;;;;;;25.60;62.96;101333.44;5050700;28;19966;-82
2022/06/29 09:56:41;;;;;;;5.22;4.10;;;;;;;25.35;63.02;101287.03;5044889;28;20040;-81
2022/06/29 09:59:09;;;;;;;6.82;3.85;;;;;;;25.45;63.05;101300.44;5034335;28;20025;-82
2022/06/29 10:04:20;;;;;;;4.72;4.00;;;;;;;25.63;63.14;101321.84;5045734;28;20469;-80
2022/06/29 10:06:46;;;;;;;7.43;4.00;;;;;;;25.66;63.18;101331.66;5031059;28;20025;-82
2022/06/29 10:09:13;;;;;;;4.82;4.30;;;;;;;25.67;62.80;101323.63;5018618;28;20029;-83
2022/06/29 10:14:43;;;;;;;4.82;4.32;;;;;;;25.55;62.89;101299.56;5053687;28;20044;-82
2022/06/29 10:17:53;;;;;;;7.25;4.22;;;;;;;25.76;62.61;101322.72;5034125;28;20476;-82
2022/06/29 10:20:41;;;;;;;7.45;4.30;;;;;;;25.71;62.76;101312.03;4970790;28;20031;-82
2022/06/29 10:23:07;;;;;;;5.32;4.10;;;;;;;25.70;62.72;101294.22;4962550;28;20118;-82
2022/06/29 10:25:32;;;;;;;;;;;;;;;25.72;62.12;101315.63;4971368;28;20145;-81
2022/06/29 10:28:26;;;;;;;4.60;4.10;;;;;;;25.68;62.44;101304.03;4970785;28;19953;-81
2022/06/29 10:30:54;;;;;;;5.40;4.00;;;;;;;25.70;62.15;101304.03;4958214;28;20086;-82
2022/06/29 10:33:41;;;;;;;6.32;4.55;;;;;;;25.76;62.20;101301.31;4971779;28;20565;-81
2022/06/29 10:36:08;;;;;;;8.00;4.63;;;;;;;25.53;62.13;101258.56;4977158;28;20094;-80
2022/06/29 10:38:54;;;;;;;5.32;4.10;;;;;;;25.79;61.81;101299.56;4955953;28;20028;-82
2022/06/29 10:44:05;;;;;;;5.45;4.32;;;;;;;25.59;62.25;101255.88;5024147;28;20160;-81
2022/06/29 10:49:38;;;;;;;4.82;3.92;;;;;;;25.82;61.90;101290.63;5015914;28;20040;-82
2022/06/29 10:52:07;;;;;;;;;;;;;;;25.84;62.07;101291.53;5031990;28;20037;-82
2022/06/29 10:54:35;;;;;;;6.45;4.32;;;;;;;25.83;61.87;101288.88;5013159;28;19940;-82
2022/06/29 10:57:01;;;;;;;7.05;4.38;;;;;;;25.83;62.53;101287.06;5030713;28;20017;-82
2022/06/29 11:02:49;;;;;;;4.72;4.07;;;;;;;25.25;62.18;101175.69;4993061;28;19921;-82
2022/06/29 11:20:27;;;;;;;5.45;4.05;;;;;;;25.91;61.90;101277.28;5030412;28;20044;-82
2022/06/29 11:26:17;;;;;;;4.90;3.85;;;;;;;25.68;61.86;101220.22;4999317;28;20040;-81
2022/06/29 11:28:47;;;;;;;5.35;4.15;;;;;;;25.92;61.92;101263.00;5031930;28;20037;-80
2022/06/29 11:31:17;;;;;;;5.18;4.07;;;;;;;25.93;61.09;101261.22;5029914;28;20017;-80
2022/06/29 11:33:46;;;;;;;5.22;3.90;;;;;;;25.79;61.72;101231.78;4996686;28;20382;-81
2022/06/29 11:36:25;;;;;;;4.25;3.60;;;;;;;25.95;61.63;101246.97;5026259;28;20044;-82
2022/06/29 11:39:36;;;;;;;6.07;3.75;;;;;;;25.86;61.74;101230.88;5026371;28;20099;-82
2022/06/29 11:52:01;;;;;;;6.25;3.85;;;;;;;25.98;62.00;101236.22;4969247;28;20090;-81
2022/06/29 11:55:00;;;;;;;4.50;4.00;;;;;;;26.01;61.82;101229.97;4966721;28;20090;-82
2022/06/29 11:57:26;;;;;;;7.80;3.90;;;;;;;25.62;61.43;101166.72;4944249;28;20102;-82
2022/06/29 12:00:03;;;;;;;;;;;;;;;26.00;61.50;101223.75;4969600;28;20646;-82
2022/06/29 12:02:46;;;;;;;6.65;4.25;;;;;;;25.78;60.92;101196.13;4952437;28;19910;-81
2022/06/29 12:05:12;;;;;;;5.47;3.95;;;;;;;25.73;61.14;101173.81;4948272;28;20038;-82
2022/06/29 12:07:37;;;;;;;;;;;;;;;26.09;61.03;101224.63;4978797;28;20402;-81
2022/06/29 12:10:03;;;;;;;6.90;4.07;;;;;;;26.02;61.51;101210.38;4992753;28;19938;-82
2022/06/29 12:12:29;;;;;;;;;;;;;;;26.08;60.98;101218.38;4993007;28;20026;-82
2022/06/29 12:14:54;;;;;;;5.18;4.15;;;;;;;25.89;61.30;101180.06;4992691;28;19951;-81
2022/06/29 12:17:20;;;;;;;5.20;3.72;;;;;;;25.92;61.43;101190.75;4984441;28;20039;-82
2022/06/29 12:19:47;;;;;;;;;;;;;;;26.11;61.38;101210.31;4992829;28;20031;-81
2022/06/29 12:22:13;;;;;;;5.82;3.97;;;;;;;25.74;61.14;101143.50;4992260;28;19910;-82
2022/06/29 12:24:39;;;;;;;4.90;3.67;;;;;;;25.82;61.54;101161.31;5006158;28;20030;-81
2022/06/29 12:27:04;;;;;;;;;;;;;;;26.14;61.23;101206.75;5044992;28;20027;-82
2022/06/29 12:29:39;;;;;;;4.85;3.97;;;;;;;26.12;61.84;101212.13;5024103;28;19994;-81
2022/06/29 12:32:04;;;;;;;6.57;3.67;;;;;;;26.00;61.70;101183.59;5048582;28;20055;-81
2022/06/29 12:34:30;;;;;;;;;;;;;;;26.14;61.49;101196.03;5054107;28;20025;-81
2022/06/29 12:36:56;;;;;;;5.82;3.47;;;;;;;25.98;61.70;101168.44;5039488;28;19994;-83
2022/06/29 12:39:25;;;;;;;6.88;3.85;;;;;;;25.98;61.65;101171.13;5053500;28;20083;-82
2022/06/29 12:41:53;;;;;;;4.55;3.60;;;;;;;25.89;61.05;101156.00;5049277;28;20025;-81
2022/06/29 12:44:18;;;;;;;3.97;3.50;;;;;;;26.15;61.50;101187.13;5009441;28;20032;-82